Huvudsida
METAR-TAF:

METAR-TAF

Flygplatser :

Puerto Princesa, Filippinerna

latitud: 09-44-32N, longitud: 118-45-31E, höjd: 22 m

Aktuellt väderrapport

Denna rapport gjordes för 1 timme och 1 minuter sedan, klockan 00:00 UTC
Vind 4 kt från väst
Temperatur 28°C
Fuktighet 79%
Tryck 1012 hPa
Sikt 10 km eller mer
Få moln på en höjd av 1900 ft

METAR: RPVP 190000Z 27004KT 9999 FEW019 28/24 Q1012 RMK A2988

Tid: 09:01 (01:01 UTC)

Väderprognos

Denna rapport gjordes för 2 timmar och 1 minuter sedan, klockan 23:00 UTC
Prognos gäller från 19 kl. 00 UTC till 19 kl. 24 UTC
Vind 6 kt från väst
Sikt 10 km eller mer
Få moln på en höjd av 1900 ft
Spridda moln på en höjd av 8000 ft
Temporärt
från 19 kl. 00 UTC till 19 kl. 06 UTC
Vind 10 kt från syd/sydost
Få moln på en höjd av 1700 ft, Cumulonimbus.
Brutna moln på en höjd av 8000 ft

TAF: RPVP 182300Z 1900/1924 27006KT 9999 FEW019 SCT080 TEMPO 1900/1906 15010KT FEW017CB BKN080

Aktuella väderrapporter och prognoser från 4000 flygplatser (METAR- och TAF-rapporter).

De tillgängliga stationerna syns som gula och röda prickar på kartan.

För musen över prickarna för att se namnen på stationerna.

Klicka sedan för att få väderrapporter och prognoser.

För att ändra kartan: Klicka på de gröna knapparna med ett svart kors på för att zooma in; den gröna knappen med ett streck på för att zooma ut; eller på de gröna pilarna för angränsande kartor.


METAR-TAF: